Time;durP1;ratioP1;P1;durP2;ratioP2;P2;SDS_P1;SDS_P2;PMS_P1;PMS_P2;Temp;Humidity;BMP_temperature;BMP_pressure;BME280_temperature;BME280_humidity;BME280_pressure;Samples;Min_cycle;Max_cycle;Signal;HPM_P1;HPM_P2
2021/08/19 00:02:16;;;;;;;8.50;7.35;;;21.70;75.60;;;;;;4882988;29;20116;-72
2021/08/19 00:04:42;;;;;;;7.65;6.47;;;21.70;75.60;;;;;;4882883;29;20047;-72
2021/08/19 00:07:08;;;;;;;8.68;6.57;;;21.70;75.60;;;;;;4882920;29;20040;-72
2021/08/19 00:09:37;;;;;;;7.82;6.70;;;21.70;75.70;;;;;;4866403;29;20025;-71
2021/08/19 00:12:07;;;;;;;7.78;6.20;;;21.70;75.40;;;;;;4883296;29;20112;-72
2021/08/19 00:14:36;;;;;;;7.47;6.10;;;21.70;75.10;;;;;;4883548;29;20145;-72
2021/08/19 00:17:04;;;;;;;9.15;6.30;;;21.70;75.10;;;;;;4882716;29;20032;-71
2021/08/19 00:19:30;;;;;;;10.95;6.85;;;21.70;75.10;;;;;;4883023;29;20029;-71
2021/08/19 00:21:55;;;;;;;7.15;6.40;;;21.70;75.40;;;;;;4882717;29;20040;-71
2021/08/19 00:24:21;;;;;;;8.93;6.68;;;21.70;75.20;;;;;;4882782;29;20045;-71
2021/08/19 00:26:47;;;;;;;7.10;6.40;;;21.70;75.10;;;;;;4882751;29;20033;-72
2021/08/19 00:29:13;;;;;;;10.63;7.07;;;21.70;75.10;;;;;;4882345;29;20032;-72
2021/08/19 00:31:38;;;;;;;8.20;7.00;;;21.70;75.10;;;;;;4882518;29;20033;-73
2021/08/19 00:34:04;;;;;;;8.98;6.65;;;21.80;75.20;;;;;;4882530;29;20033;-72
2021/08/19 00:36:30;;;;;;;7.22;6.53;;;21.80;75.20;;;;;;4882429;29;20036;-72
2021/08/19 00:38:56;;;;;;;9.23;6.95;;;21.80;75.00;;;;;;4882770;29;20032;-72
2021/08/19 00:41:22;;;;;;;8.18;6.55;;;21.80;74.80;;;;;;4882417;29;20021;-72
2021/08/19 00:43:49;;;;;;;9.90;6.47;;;21.70;74.80;;;;;;4882310;29;20390;-72
2021/08/19 00:46:27;;;;;;;9.50;7.32;;;21.70;74.90;;;;;;4882096;29;20057;-72
2021/08/19 00:49:02;;;;;;;8.60;6.78;;;21.70;75.00;;;;;;4881976;29;20025;-72
2021/08/19 00:51:39;;;;;;;8.32;6.95;;;21.70;74.80;;;;;;4882466;29;20033;-71
2021/08/19 00:54:07;;;;;;;8.43;6.93;;;21.70;74.60;;;;;;4881733;29;20478;-72
2021/08/19 00:56:33;;;;;;;10.45;6.90;;;21.60;74.50;;;;;;4881080;29;20033;-72
2021/08/19 00:58:58;;;;;;;8.25;6.70;;;21.60;74.70;;;;;;4881734;29;20099;-72
2021/08/19 01:01:24;;;;;;;11.15;6.78;;;21.50;74.60;;;;;;4881843;29;20469;-72
2021/08/19 01:03:54;;;;;;;8.65;6.95;;;21.50;74.80;;;;;;4881669;29;20028;-72
2021/08/19 01:06:19;;;;;;;9.60;6.60;;;21.50;74.80;;;;;;4881504;29;20096;-72
2021/08/19 01:08:45;;;;;;;7.57;6.68;;;21.40;74.70;;;;;;4881862;29;20028;-71
2021/08/19 01:11:11;;;;;;;8.02;6.63;;;21.40;74.90;;;;;;4881612;29;20029;-72
2021/08/19 01:13:37;;;;;;;7.63;6.68;;;21.40;74.90;;;;;;4881523;29;20064;-73
2021/08/19 01:16:03;;;;;;;7.18;6.47;;;21.30;74.80;;;;;;4865405;29;20401;-72
2021/08/19 01:18:43;;;;;;;8.90;6.13;;;21.30;75.00;;;;;;4881843;29;20029;-71
2021/08/19 01:21:11;;;;;;;8.27;5.75;;;21.30;73.90;;;;;;4881889;29;20406;-72
2021/08/19 01:23:37;;;;;;;9.23;6.20;;;21.20;73.90;;;;;;4880976;29;20077;-75
2021/08/19 01:26:07;;;;;;;6.80;5.60;;;21.20;74.10;;;;;;4864837;29;20037;-72
2021/08/19 01:28:37;;;;;;;7.72;6.05;;;21.10;74.10;;;;;;4881576;29;20051;-72
2021/08/19 01:31:05;;;;;;;7.93;6.07;;;21.10;73.80;;;;;;4881261;29;20033;-72
2021/08/19 01:33:31;;;;;;;6.07;5.45;;;21.10;73.50;;;;;;4880998;29;20120;-72
2021/08/19 01:35:57;;;;;;;7.40;5.07;;;21.00;73.40;;;;;;4881184;29;20029;-71
2021/08/19 01:38:34;;;;;;;7.15;5.43;;;20.90;73.40;;;;;;4881716;29;20029;-72
2021/08/19 01:41:01;;;;;;;8.13;5.72;;;20.90;73.50;;;;;;4881163;29;20025;-72
2021/08/19 01:43:28;;;;;;;6.45;4.97;;;20.90;73.70;;;;;;4881159;29;20021;-72
2021/08/19 01:46:01;;;;;;;5.82;5.00;;;20.90;73.80;;;;;;4880951;29;20037;-72
2021/08/19 01:48:29;;;;;;;7.70;5.30;;;20.90;73.90;;;;;;4864211;29;20035;-72
2021/08/19 01:50:54;;;;;;;6.68;5.13;;;20.90;74.00;;;;;;4880903;29;20075;-72
2021/08/19 01:53:21;;;;;;;12.98;6.38;;;20.90;74.20;;;;;;4880649;29;20056;-72
2021/08/19 01:55:46;;;;;;;7.15;5.80;;;20.90;74.40;;;;;;4880814;29;20077;-72
2021/08/19 01:58:12;;;;;;;8.63;6.22;;;20.90;74.70;;;;;;4863874;29;20385;-72
2021/08/19 02:00:38;;;;;;;8.27;5.75;;;20.80;75.10;;;;;;4880713;29;20037;-72
2021/08/19 02:03:05;;;;;;;8.60;6.93;;;20.80;75.40;;;;;;4880346;29;20546;-72
2021/08/19 02:05:31;;;;;;;6.90;6.00;;;20.80;75.70;;;;;;4880616;29;20112;-72
2021/08/19 02:07:56;;;;;;;8.70;5.68;;;20.80;76.00;;;;;;4864441;29;20412;-72
2021/08/19 02:10:22;;;;;;;9.15;6.57;;;20.80;76.10;;;;;;4863535;29;20036;-72
2021/08/19 02:12:48;;;;;;;7.40;6.22;;;20.80;76.40;;;;;;4880816;29;20347;-72
2021/08/19 02:15:14;;;;;;;11.15;6.78;;;20.80;76.60;;;;;;4880775;29;20048;-72
2021/08/19 02:17:40;;;;;;;8.27;6.57;;;20.80;76.90;;;;;;4880155;29;20504;-76
2021/08/19 02:20:07;;;;;;;7.90;6.60;;;20.80;77.20;;;;;;4880586;29;20029;-71
2021/08/19 02:22:33;;;;;;;8.85;6.40;;;20.80;77.50;;;;;;4880177;29;20474;-72
2021/08/19 02:24:58;;;;;;;7.82;6.18;;;20.80;77.70;;;;;;4880446;29;20039;-72
2021/08/19 02:27:24;;;;;;;9.02;6.22;;;20.80;77.70;;;;;;4880822;29;20048;-72
2021/08/19 02:29:50;;;;;;;8.80;6.10;;;20.80;77.70;;;;;;4880264;29;20065;-72
2021/08/19 02:32:16;;;;;;;6.63;5.55;;;20.80;77.70;;;;;;4880580;29;20386;-71
2021/08/19 02:34:42;;;;;;;6.43;5.82;;;20.80;77.60;;;;;;4880488;29;20041;-72
2021/08/19 02:37:08;;;;;;;7.25;6.22;;;20.90;77.70;;;;;;4880002;29;20363;-73
2021/08/19 02:39:34;;;;;;;8.00;5.85;;;20.90;77.50;;;;;;4880261;29;20036;-72
2021/08/19 02:42:00;;;;;;;8.80;6.88;;;20.90;77.40;;;;;;4880257;29;20029;-73
2021/08/19 02:44:26;;;;;;;7.55;6.75;;;21.00;77.30;;;;;;4878883;29;20047;-72
2021/08/19 02:46:52;;;;;;;8.18;6.40;;;21.00;77.20;;;;;;4880015;29;20047;-72
2021/08/19 02:49:18;;;;;;;7.35;6.35;;;20.90;77.20;;;;;;4880052;29;20029;-74
2021/08/19 02:51:43;;;;;;;9.63;6.80;;;21.00;77.70;;;;;;4880053;29;20029;-72
2021/08/19 02:54:09;;;;;;;7.90;6.53;;;21.00;77.50;;;;;;4880277;29;20410;-72
2021/08/19 02:56:35;;;;;;;9.10;6.93;;;20.90;77.60;;;;;;4880653;29;20108;-72
2021/08/19 02:59:01;;;;;;;8.07;6.78;;;20.90;77.80;;;;;;4863860;29;20028;-72
2021/08/19 03:01:27;;;;;;;8.10;6.93;;;20.90;78.00;;;;;;4880122;29;20033;-73
2021/08/19 03:03:53;;;;;;;8.43;7.40;;;20.80;78.20;;;;;;4879695;29;20089;-73
2021/08/19 03:06:18;;;;;;;9.13;7.32;;;20.80;78.40;;;;;;4880062;29;20108;-73
2021/08/19 03:08:44;;;;;;;9.00;7.30;;;20.80;78.40;;;;;;4879923;29;20031;-73
2021/08/19 03:11:10;;;;;;;8.52;7.30;;;20.80;78.80;;;;;;4879628;29;20036;-73
2021/08/19 03:13:36;;;;;;;8.60;7.60;;;20.70;79.20;;;;;;4880324;29;20375;-72
2021/08/19 03:16:02;;;;;;;9.45;7.85;;;20.70;79.50;;;;;;4880095;29;20033;-72
2021/08/19 03:18:28;;;;;;;9.25;7.50;;;20.70;79.70;;;;;;4879564;29;20025;-73
2021/08/19 03:20:54;;;;;;;12.40;7.57;;;20.70;79.70;;;;;;4879309;29;20036;-72
2021/08/19 03:23:20;;;;;;;9.90;7.43;;;20.60;79.60;;;;;;4880434;29;20148;-73
2021/08/19 03:25:46;;;;;;;10.82;7.25;;;20.60;79.80;;;;;;4863390;29;20136;-72
2021/08/19 03:28:13;;;;;;;9.20;7.20;;;20.60;79.70;;;;;;4879544;29;20044;-72
2021/08/19 03:30:39;;;;;;;9.00;7.22;;;20.60;79.80;;;;;;4879779;29;20040;-73
2021/08/19 03:33:07;;;;;;;9.85;8.18;;;20.50;79.70;;;;;;4863145;29;20025;-73
2021/08/19 03:35:33;;;;;;;12.50;8.27;;;20.60;80.10;;;;;;4863807;29;20045;-73
2021/08/19 03:37:59;;;;;;;11.68;8.75;;;20.50;80.60;;;;;;4879472;29;20482;-74
2021/08/19 03:40:26;;;;;;;14.10;8.60;;;20.40;80.90;;;;;;4879885;29;20049;-73
2021/08/19 03:42:52;;;;;;;11.45;7.50;;;20.40;80.90;;;;;;4879758;29;20022;-73
2021/08/19 03:45:19;;;;;;;9.52;7.47;;;20.40;81.00;;;;;;4879959;29;20386;-73
2021/08/19 03:47:46;;;;;;;10.20;7.40;;;20.40;81.10;;;;;;4879721;29;20044;-73
2021/08/19 03:50:12;;;;;;;7.85;6.65;;;20.40;81.30;;;;;;4879388;29;20033;-73
2021/08/19 03:52:38;;;;;;;10.80;7.90;;;20.50;81.10;;;;;;4879212;29;20029;-73
2021/08/19 03:55:05;;;;;;;9.85;8.07;;;20.50;80.90;;;;;;4879696;29;20116;-73
2021/08/19 03:57:31;;;;;;;8.93;8.00;;;20.40;81.00;;;;;;4879575;29;20351;-73
2021/08/19 03:59:56;;;;;;;9.70;7.28;;;20.40;81.00;;;;;;4879548;29;20033;-73
2021/08/19 04:02:22;;;;;;;10.30;7.57;;;20.40;81.40;;;;;;4879520;29;20029;-73
2021/08/19 04:04:48;;;;;;;9.88;7.28;;;20.40;80.60;;;;;;4863549;29;20033;-73
2021/08/19 04:07:14;;;;;;;7.68;6.63;;;20.40;80.50;;;;;;4879499;29;20033;-73
2021/08/19 04:09:39;;;;;;;11.50;7.25;;;20.30;80.30;;;;;;4879694;29;20505;-73
2021/08/19 04:12:05;;;;;;;8.88;7.28;;;20.30;80.20;;;;;;4863031;29;20052;-73
2021/08/19 04:14:31;;;;;;;7.80;6.82;;;20.30;80.00;;;;;;4879716;29;20057;-73
2021/08/19 04:16:57;;;;;;;10.32;7.38;;;20.40;79.90;;;;;;4879353;29;20368;-73
2021/08/19 04:19:23;;;;;;;10.05;6.80;;;20.30;79.90;;;;;;4862088;29;20084;-73
2021/08/19 04:21:51;;;;;;;9.32;6.78;;;20.30;79.90;;;;;;4879792;29;20378;-73
2021/08/19 04:24:17;;;;;;;9.07;6.68;;;20.30;79.80;;;;;;4879505;29;20033;-73
2021/08/19 04:26:42;;;;;;;8.00;6.47;;;20.30;79.60;;;;;;4878951;29;20055;-73
2021/08/19 04:29:08;;;;;;;7.22;6.30;;;20.30;79.60;;;;;;4879276;29;20036;-73
2021/08/19 04:31:34;;;;;;;8.25;6.28;;;20.30;79.20;;;;;;4879101;29;20435;-73
2021/08/19 04:34:00;;;;;;;6.78;5.78;;;20.30;79.10;;;;;;4882535;29;20080;-73
2021/08/19 04:36:26;;;;;;;7.80;6.15;;;20.30;78.80;;;;;;4865661;29;20450;-74
2021/08/19 04:38:52;;;;;;;9.48;6.22;;;20.30;78.30;;;;;;4882429;29;20033;-73
2021/08/19 04:41:17;;;;;;;6.75;5.88;;;20.30;78.10;;;;;;4882106;29;20509;-73
2021/08/19 04:43:43;;;;;;;7.25;5.78;;;20.30;78.10;;;;;;4882484;29;20069;-73
2021/08/19 04:46:09;;;;;;;6.72;5.78;;;20.40;78.00;;;;;;4882739;29;20060;-73
2021/08/19 04:48:34;;;;;;;9.68;5.80;;;20.40;77.70;;;;;;4881980;29;20475;-72
2021/08/19 04:51:00;;;;;;;7.35;6.10;;;20.40;77.50;;;;;;4882162;29;20101;-73
2021/08/19 04:53:26;;;;;;;7.15;5.80;;;20.50;77.10;;;;;;4865425;29;20036;-72
2021/08/19 04:55:51;;;;;;;6.57;5.15;;;20.60;77.10;;;;;;4882321;29;20064;-73
2021/08/19 04:58:17;;;;;;;7.95;5.70;;;20.60;76.90;;;;;;4882258;29;20454;-72
2021/08/19 05:00:43;;;;;;;6.63;5.50;;;20.70;76.60;;;;;;4865185;29;20029;-72
2021/08/19 05:03:08;;;;;;;8.30;5.10;;;20.70;76.00;;;;;;4865416;29;20104;-72
2021/08/19 05:05:34;;;;;;;7.35;5.65;;;20.70;75.60;;;;;;4865528;29;20489;-72
2021/08/19 05:08:00;;;;;;;5.70;5.10;;;20.70;75.50;;;;;;4882159;29;20044;-74
2021/08/19 05:10:25;;;;;;;6.72;5.18;;;20.80;75.30;;;;;;4881639;29;20389;-72
2021/08/19 05:12:51;;;;;;;6.25;5.13;;;20.80;75.10;;;;;;4881686;29;20030;-72
2021/08/19 05:15:17;;;;;;;8.25;5.63;;;20.90;74.80;;;;;;4882450;29;20080;-73
2021/08/19 05:17:42;;;;;;;6.05;4.93;;;20.90;74.50;;;;;;4882079;29;20028;-71
2021/08/19 05:20:09;;;;;;;6.72;5.20;;;20.90;74.40;;;;;;4881915;29;20025;-72
2021/08/19 05:22:34;;;;;;;6.55;5.18;;;20.90;74.30;;;;;;4881336;29;20029;-72
2021/08/19 05:25:00;;;;;;;8.38;5.30;;;20.90;74.10;;;;;;4881580;29;20088;-72
2021/08/19 05:27:26;;;;;;;8.35;5.93;;;20.80;74.10;;;;;;4881438;29;20045;-73
2021/08/19 05:29:51;;;;;;;6.32;5.18;;;20.80;74.30;;;;;;4864758;29;20028;-72
2021/08/19 05:32:17;;;;;;;7.65;5.55;;;20.80;74.30;;;;;;4881744;29;20466;-72
2021/08/19 05:34:43;;;;;;;7.07;5.38;;;20.80;74.30;;;;;;4881122;29;20039;-72
2021/08/19 05:37:09;;;;;;;6.40;5.07;;;20.80;74.30;;;;;;4881272;29;20377;-73
2021/08/19 05:39:34;;;;;;;8.35;5.35;;;20.90;74.30;;;;;;4881684;29;20085;-73
2021/08/19 05:42:00;;;;;;;8.00;5.28;;;20.90;74.10;;;;;;4865282;29;20036;-72
2021/08/19 05:44:26;;;;;;;7.32;5.53;;;21.00;74.80;;;;;;4880680;29;20065;-73
2021/08/19 05:46:52;;;;;;;7.13;5.38;;;21.00;74.00;;;;;;4880889;29;20397;-73
2021/08/19 05:49:18;;;;;;;6.40;5.22;;;21.00;73.90;;;;;;4881156;29;20446;-73
2021/08/19 05:51:43;;;;;;;5.63;4.97;;;21.10;73.80;;;;;;4880856;29;20060;-72
2021/08/19 05:54:09;;;;;;;5.43;4.57;;;21.20;73.60;;;;;;4881010;29;20041;-72
2021/08/19 05:56:35;;;;;;;7.78;5.78;;;21.20;73.30;;;;;;4881448;29;20450;-72
2021/08/19 05:59:00;;;;;;;6.85;5.30;;;21.20;73.00;;;;;;4880928;29;20449;-73
2021/08/19 06:01:26;;;;;;;6.85;5.55;;;21.30;72.90;;;;;;4864182;29;20068;-73
2021/08/19 06:03:52;;;;;;;5.70;5.07;;;21.30;72.70;;;;;;4880577;29;20029;-74
2021/08/19 06:06:18;;;;;;;6.00;4.95;;;21.40;72.50;;;;;;4864306;29;20033;-74
2021/08/19 06:08:44;;;;;;;6.15;5.00;;;21.50;72.20;;;;;;4864943;29;20410;-74
2021/08/19 06:11:09;;;;;;;6.47;4.60;;;21.60;72.40;;;;;;4881308;29;20112;-74
2021/08/19 06:13:35;;;;;;;6.90;4.90;;;21.70;71.30;;;;;;4880605;29;20192;-74
2021/08/19 06:16:01;;;;;;;6.82;5.30;;;21.90;71.10;;;;;;4864790;29;20123;-74
2021/08/19 06:18:26;;;;;;;9.10;6.00;;;22.00;71.00;;;;;;4880773;29;20481;-74
2021/08/19 06:20:52;;;;;;;7.03;5.35;;;22.00;70.70;;;;;;4880570;29;20362;-73
2021/08/19 06:23:18;;;;;;;7.07;5.30;;;22.10;70.40;;;;;;4880473;29;20036;-74
2021/08/19 06:28:22;;;;;;;7.55;5.50;;;22.30;70.10;;;;;;4900253;29;20060;-74
2021/08/19 06:30:48;;;;;;;7.50;5.50;;;22.40;69.80;;;;;;4907859;29;20369;-74
2021/08/19 06:33:13;;;;;;;7.30;5.20;;;22.60;69.10;;;;;;4915292;29;20036;-71
2021/08/19 06:35:39;;;;;;;7.90;5.45;;;22.70;68.70;;;;;;4908633;29;20387;-71
2021/08/19 06:38:05;;;;;;;6.53;5.10;;;22.80;67.90;;;;;;4898446;29;20040;-72
2021/08/19 06:40:30;;;;;;;5.75;4.88;;;22.80;67.70;;;;;;4881321;29;20584;-72
2021/08/19 06:42:56;;;;;;;7.53;5.18;;;22.70;67.50;;;;;;4881516;29;20039;-72
2021/08/19 06:45:22;;;;;;;6.93;5.03;;;22.60;67.40;;;;;;4925234;29;20055;-72
2021/08/19 06:47:47;;;;;;;9.32;5.28;;;22.50;67.20;;;;;;4906206;29;20048;-72
2021/08/19 06:50:13;;;;;;;5.97;5.38;;;22.50;67.50;;;;;;4916487;29;20032;-72
2021/08/19 06:52:44;;;;;;;7.47;4.95;;;22.40;67.40;;;;;;4917228;29;20076;-72
2021/08/19 06:55:11;;;;;;;6.85;5.30;;;22.30;67.20;;;;;;4916359;29;20032;-72
2021/08/19 06:57:37;;;;;;;7.10;4.97;;;22.20;67.40;;;;;;4902934;29;20091;-72
2021/08/19 07:00:04;;;;;;;7.90;5.32;;;22.10;67.50;;;;;;4906127;29;20043;-72
2021/08/19 07:02:30;;;;;;;8.52;5.60;;;22.00;67.60;;;;;;4917022;29;20043;-72
2021/08/19 07:07:22;;;;;;;7.93;5.20;;;21.80;67.90;;;;;;4894631;29;20405;-73
2021/08/19 07:09:48;;;;;;;8.23;5.43;;;21.60;68.00;;;;;;4887839;29;20037;-73
2021/08/19 07:12:14;;;;;;;9.13;5.82;;;21.50;68.30;;;;;;4890221;29;20108;-72
2021/08/19 07:14:40;;;;;;;8.20;5.20;;;21.40;68.70;;;;;;4898396;29;20177;-74
2021/08/19 07:17:06;;;;;;;7.13;5.47;;;21.30;69.40;;;;;;4879879;29;20452;-73
2021/08/19 07:19:31;;;;;;;8.68;5.15;;;21.20;69.00;;;;;;4875707;29;20541;-72
2021/08/19 07:21:57;;;;;;;9.65;5.53;;;21.20;69.10;;;;;;4889737;29;20033;-73
2021/08/19 07:24:23;;;;;;;7.03;5.70;;;21.20;69.30;;;;;;4889836;29;20066;-72
2021/08/19 07:26:48;;;;;;;11.48;5.57;;;21.20;69.30;;;;;;4880792;29;20029;-73
